Time;durP1;ratioP1;P1;durP2;ratioP2;P2;SDS_P1;SDS_P2;PMS_P1;PMS_P2;Temp;Humidity;BMP_temperature;BMP_pressure;BME280_temperature;BME280_humidity;BME280_pressure;Samples;Min_cycle;Max_cycle;Signal;HPM_P1;HPM_P2
2023/10/29 00:00:12;;;;;;;98.47;40.40;;;11.20;99.90;;;;;;5119357;28;20047;-58
2023/10/29 00:02:38;;;;;;;78.63;32.90;;;11.20;99.90;;;;;;5119662;28;20057;-58
2023/10/29 00:05:04;;;;;;;60.35;27.65;;;11.20;99.90;;;;;;5119726;28;20102;-58
2023/10/29 00:07:30;;;;;;;54.58;25.95;;;11.20;99.90;;;;;;5119307;28;20034;-58
2023/10/29 00:09:56;;;;;;;65.97;28.23;;;11.30;99.90;;;;;;5119466;28;20027;-58
2023/10/29 00:12:22;;;;;;;75.05;31.10;;;11.30;99.90;;;;;;5119512;28;20111;-58
2023/10/29 00:14:48;;;;;;;109.22;39.28;;;11.30;99.90;;;;;;5119333;28;20055;-58
2023/10/29 00:17:14;;;;;;;115.47;42.00;;;11.30;99.90;;;;;;5119295;28;20023;-58
2023/10/29 00:19:39;;;;;;;128.88;44.75;;;11.20;99.90;;;;;;5119215;28;20081;-58
2023/10/29 00:22:05;;;;;;;116.30;40.17;;;11.10;99.90;;;;;;5119454;28;20031;-58
2023/10/29 00:24:31;;;;;;;112.78;44.00;;;11.00;99.90;;;;;;5119217;28;20019;-58
2023/10/29 00:26:57;;;;;;;99.13;38.00;;;11.00;99.90;;;;;;5119177;28;20038;-58
2023/10/29 00:29:23;;;;;;;70.82;31.83;;;11.00;99.90;;;;;;5118728;28;20063;-58
2023/10/29 00:31:48;;;;;;;65.70;26.45;;;11.00;99.90;;;;;;5100915;28;20032;-58
2023/10/29 00:34:14;;;;;;;66.10;27.92;;;11.00;99.90;;;;;;5100672;28;20048;-58
2023/10/29 00:36:40;;;;;;;51.42;25.08;;;11.00;99.90;;;;;;5100469;28;20377;-58
2023/10/29 00:39:07;;;;;;;51.83;22.95;;;11.00;99.90;;;;;;5118982;28;20039;-58
2023/10/29 00:41:33;;;;;;;49.58;22.65;;;11.00;99.90;;;;;;5118980;28;20081;-58
2023/10/29 00:43:59;;;;;;;52.60;23.13;;;10.90;99.90;;;;;;5100433;28;20472;-58
2023/10/29 00:46:25;;;;;;;46.97;21.75;;;10.90;99.90;;;;;;5100607;28;20026;-58
2023/10/29 00:48:51;;;;;;;44.28;20.23;;;11.00;99.90;;;;;;5100565;28;20044;-58
2023/10/29 00:51:18;;;;;;;42.72;20.40;;;10.80;99.90;;;;;;5118533;28;20034;-58
2023/10/29 00:53:44;;;;;;;39.40;18.08;;;10.80;99.90;;;;;;5118725;28;20467;-58
2023/10/29 00:56:12;;;;;;;45.35;19.23;;;10.80;99.90;;;;;;5100394;28;20028;-58
2023/10/29 00:58:40;;;;;;;52.05;24.05;;;10.80;99.90;;;;;;5118568;28;20063;-58
2023/10/29 01:01:06;;;;;;;51.60;24.95;;;10.80;99.90;;;;;;5100228;28;20027;-58
2023/10/29 01:03:32;;;;;;;48.58;24.67;;;10.80;99.90;;;;;;5099337;28;20369;-58
2023/10/29 01:05:58;;;;;;;42.92;22.27;;;10.80;99.90;;;;;;5118513;28;20077;-58
2023/10/29 01:08:27;;;;;;;43.80;22.05;;;10.80;99.90;;;;;;5118269;28;20115;-58
2023/10/29 01:10:53;;;;;;;42.47;20.00;;;10.80;99.90;;;;;;5118344;28;20035;-58
2023/10/29 01:13:19;;;;;;;36.40;18.70;;;10.70;99.90;;;;;;5100072;28;20031;-58
2023/10/29 01:15:46;;;;;;;34.70;18.10;;;10.70;99.90;;;;;;5099887;28;20110;-58
2023/10/29 01:18:11;;;;;;;37.88;18.38;;;10.70;99.90;;;;;;5117871;28;20046;-58
2023/10/29 01:20:38;;;;;;;35.63;17.63;;;10.70;99.90;;;;;;5118226;28;20385;-58
2023/10/29 01:23:05;;;;;;;34.80;17.15;;;10.60;99.90;;;;;;5099728;28;20030;-58
2023/10/29 01:25:30;;;;;;;32.10;15.65;;;10.50;99.90;;;;;;5118035;28;20488;-58
2023/10/29 01:27:56;;;;;;;35.70;17.50;;;10.50;99.90;;;;;;5118100;28;20027;-58
2023/10/29 01:30:23;;;;;;;42.50;21.58;;;10.50;99.90;;;;;;5117636;28;20496;-58
2023/10/29 01:32:49;;;;;;;47.97;25.45;;;10.50;99.90;;;;;;5099553;28;20070;-58
2023/10/29 01:35:15;;;;;;;42.55;20.92;;;10.50;99.90;;;;;;5099945;28;20036;-58
2023/10/29 01:37:41;;;;;;;31.50;15.55;;;10.50;99.90;;;;;;5117612;28;20042;-58
2023/10/29 01:40:07;;;;;;;28.00;16.17;;;10.50;99.90;;;;;;5117673;28;20070;-58
2023/10/29 01:42:33;;;;;;;30.10;15.52;;;10.30;99.90;;;;;;5117768;28;20040;-58
2023/10/29 01:44:59;;;;;;;40.28;16.42;;;10.30;99.90;;;;;;5117499;28;20453;-58
2023/10/29 01:47:25;;;;;;;34.03;17.00;;;10.30;99.90;;;;;;5099287;28;20055;-58
2023/10/29 01:49:50;;;;;;;38.03;16.73;;;10.30;99.90;;;;;;5099368;28;20032;-58
2023/10/29 01:52:16;;;;;;;29.85;14.60;;;10.20;99.90;;;;;;5099093;28;20027;-58
2023/10/29 01:54:43;;;;;;;26.77;13.18;;;10.20;99.90;;;;;;5117473;28;20122;-58
2023/10/29 01:57:09;;;;;;;26.73;13.80;;;10.20;99.90;;;;;;5117539;28;20030;-58
2023/10/29 01:59:35;;;;;;;27.88;13.75;;;10.20;99.90;;;;;;5098858;28;20024;-58
2023/10/29 02:02:00;;;;;;;24.75;13.60;;;10.20;99.90;;;;;;5098940;28;20104;-58
2023/10/29 02:04:27;;;;;;;28.52;14.23;;;10.20;99.90;;;;;;5117490;28;20028;-58
2023/10/29 02:06:53;;;;;;;29.80;14.75;;;10.30;99.90;;;;;;5098934;28;20469;-58
2023/10/29 02:09:20;;;;;;;29.10;14.65;;;10.20;99.90;;;;;;5098767;28;20035;-58
2023/10/29 02:11:46;;;;;;;30.10;14.45;;;10.30;99.90;;;;;;5099084;28;20023;-58
2023/10/29 02:14:11;;;;;;;27.52;14.23;;;10.30;99.90;;;;;;5098657;28;20051;-58
2023/10/29 02:16:38;;;;;;;28.48;13.98;;;10.30;99.90;;;;;;5098770;28;20036;-58
2023/10/29 02:19:04;;;;;;;26.25;12.65;;;10.30;99.90;;;;;;5098766;28;20031;-58
2023/10/29 02:21:30;;;;;;;31.77;13.70;;;10.30;99.90;;;;;;5116875;28;20019;-58
2023/10/29 02:23:56;;;;;;;26.67;13.50;;;10.20;99.90;;;;;;5098819;28;20157;-58
2023/10/29 02:26:23;;;;;;;26.73;13.48;;;10.10;99.90;;;;;;5116823;28;20059;-58
2023/10/29 02:28:49;;;;;;;24.10;12.73;;;10.00;99.90;;;;;;5098705;28;20040;-58
2023/10/29 02:31:19;;;;;;;29.65;14.23;;;10.00;99.90;;;;;;5116766;28;20020;-58
2023/10/29 02:33:46;;;;;;;28.83;13.75;;;10.00;99.90;;;;;;5117107;28;20085;-58
2023/10/29 02:36:12;;;;;;;32.63;12.50;;;10.00;99.90;;;;;;5116637;28;20027;-58
2023/10/29 02:38:40;;;;;;;30.45;12.57;;;9.90;99.90;;;;;;5098506;28;20039;-58
2023/10/29 02:41:06;;;;;;;26.65;11.90;;;9.80;99.90;;;;;;5098458;28;20020;-58
2023/10/29 02:43:33;;;;;;;29.92;12.88;;;9.80;99.90;;;;;;5116579;28;20027;-58
2023/10/29 02:45:59;;;;;;;27.33;14.75;;;9.80;99.90;;;;;;5098293;28;20023;-58
2023/10/29 02:48:25;;;;;;;26.13;13.07;;;9.90;99.90;;;;;;5098296;28;20019;-58
2023/10/29 02:50:53;;;;;;;26.67;12.40;;;10.00;99.90;;;;;;5116342;28;20487;-58
2023/10/29 02:53:19;;;;;;;28.25;12.35;;;10.10;99.90;;;;;;5098287;28;20031;-58
2023/10/29 02:55:46;;;;;;;31.92;12.65;;;9.90;99.90;;;;;;5094057;28;20181;-58
2023/10/29 02:58:12;;;;;;;24.05;10.70;;;10.00;99.90;;;;;;5097612;28;20430;-58
2023/10/29 03:00:39;;;;;;;22.17;10.38;;;10.10;99.90;;;;;;5098155;28;20031;-58
2023/10/29 03:03:05;;;;;;;25.85;10.70;;;10.20;99.90;;;;;;5097859;28;20035;-58
2023/10/29 03:05:31;;;;;;;32.47;13.00;;;10.30;99.90;;;;;;5097406;28;20024;-58
2023/10/29 03:07:59;;;;;;;20.98;10.60;;;10.30;99.90;;;;;;5115825;28;20035;-58
2023/10/29 03:10:26;;;;;;;28.30;11.27;;;10.30;99.90;;;;;;5116232;28;20028;-58
2023/10/29 03:12:52;;;;;;;25.02;10.35;;;10.30;99.90;;;;;;5097524;28;20032;-58
2023/10/29 03:15:18;;;;;;;23.90;10.90;;;10.40;99.90;;;;;;5078069;28;20035;-58
2023/10/29 03:17:43;;;;;;;26.10;11.68;;;10.50;99.90;;;;;;5095562;28;20039;-58
2023/10/29 03:20:11;;;;;;;29.80;11.77;;;10.50;99.90;;;;;;5095578;28;20113;-58
2023/10/29 03:22:37;;;;;;;26.58;11.43;;;10.50;99.90;;;;;;5095655;28;20028;-58
2023/10/29 03:25:03;;;;;;;27.83;10.48;;;10.40;99.90;;;;;;5098638;28;20016;-58
2023/10/29 03:27:29;;;;;;;23.60;11.20;;;10.50;99.90;;;;;;5115489;28;20080;-58
2023/10/29 03:29:55;;;;;;;29.30;11.82;;;10.40;99.90;;;;;;5115904;28;20087;-58
2023/10/29 03:32:21;;;;;;;27.85;11.93;;;10.40;99.90;;;;;;5097544;28;20035;-58
2023/10/29 03:34:47;;;;;;;22.08;11.05;;;10.50;99.90;;;;;;5115662;28;20027;-58
2023/10/29 03:37:12;;;;;;;24.65;10.77;;;10.50;99.90;;;;;;5115817;28;20023;-58
2023/10/29 03:39:38;;;;;;;30.77;12.90;;;10.50;99.90;;;;;;5097232;28;20047;-58
2023/10/29 03:42:06;;;;;;;25.42;10.60;;;10.50;99.90;;;;;;5115508;28;20019;-58
2023/10/29 03:44:32;;;;;;;18.77;9.15;;;10.60;99.90;;;;;;5115678;28;20530;-58
2023/10/29 03:46:58;;;;;;;22.88;9.43;;;10.60;99.90;;;;;;5116020;28;20369;-58
2023/10/29 03:49:24;;;;;;;18.88;8.90;;;10.70;99.90;;;;;;5097268;28;20038;-58
2023/10/29 03:51:50;;;;;;;21.77;9.45;;;10.60;99.90;;;;;;5115537;28;20031;-58
2023/10/29 03:54:15;;;;;;;21.25;9.43;;;10.60;99.90;;;;;;5115780;28;20039;-58
2023/10/29 03:56:41;;;;;;;21.98;9.50;;;10.60;99.90;;;;;;5115473;28;20020;-58
2023/10/29 03:59:08;;;;;;;18.50;8.80;;;10.60;99.90;;;;;;5115445;28;20089;-58
2023/10/29 04:01:34;;;;;;;20.63;8.20;;;10.60;99.90;;;;;;5115516;28;20023;-58
2023/10/29 04:04:01;;;;;;;23.05;9.27;;;10.60;99.90;;;;;;5097122;28;20042;-58
2023/10/29 04:06:30;;;;;;;22.15;8.32;;;10.70;99.90;;;;;;5089574;28;20027;-58
2023/10/29 04:08:56;;;;;;;26.15;9.48;;;10.70;99.90;;;;;;5097421;28;20042;-58
2023/10/29 04:11:22;;;;;;;19.88;9.02;;;10.70;99.90;;;;;;5097326;28;20035;-58
2023/10/29 04:13:48;;;;;;;23.25;9.23;;;10.70;99.90;;;;;;5096813;28;20040;-58
2023/10/29 04:16:14;;;;;;;24.73;10.60;;;10.70;99.90;;;;;;5115551;28;20035;-58
2023/10/29 04:18:40;;;;;;;22.65;9.90;;;10.70;99.90;;;;;;5115196;28;20024;-58
2023/10/29 04:21:08;;;;;;;19.95;9.55;;;10.70;99.90;;;;;;5115550;28;20529;-58
2023/10/29 04:23:37;;;;;;;18.95;8.32;;;10.70;99.90;;;;;;5115489;28;20102;-58
2023/10/29 04:26:03;;;;;;;17.20;8.15;;;10.70;99.90;;;;;;5111919;28;20027;-58
2023/10/29 04:28:29;;;;;;;18.60;7.35;;;10.70;99.90;;;;;;5115237;28;20043;-58
2023/10/29 04:30:56;;;;;;;18.50;7.55;;;10.60;99.90;;;;;;5115519;28;20051;-58
2023/10/29 04:33:22;;;;;;;15.80;6.90;;;10.50;99.90;;;;;;5115055;28;20389;-58
2023/10/29 04:35:48;;;;;;;18.20;7.65;;;10.50;99.90;;;;;;5115435;28;20473;-58
2023/10/29 04:38:14;;;;;;;15.00;7.18;;;10.50;99.90;;;;;;5117075;28;20028;-58
2023/10/29 04:40:40;;;;;;;44.00;19.00;;;10.50;99.90;;;;;;5119107;28;20384;-58
2023/10/29 04:43:07;;;;;;;25.52;12.93;;;10.50;99.90;;;;;;5118877;28;20047;-58
2023/10/29 04:45:33;;;;;;;23.90;11.07;;;10.50;99.90;;;;;;5118833;28;20039;-58
2023/10/29 04:47:58;;;;;;;31.13;10.68;;;10.50;99.90;;;;;;5118911;28;20023;-58
2023/10/29 04:50:24;;;;;;;25.05;11.30;;;10.40;99.90;;;;;;5118662;28;20451;-58
2023/10/29 04:52:50;;;;;;;27.15;11.50;;;10.40;99.90;;;;;;5100617;28;20034;-58
2023/10/29 04:55:16;;;;;;;20.42;9.93;;;10.40;99.90;;;;;;5118712;28;20032;-58
2023/10/29 04:57:42;;;;;;;19.45;9.38;;;10.30;99.90;;;;;;5118306;28;20036;-58
2023/10/29 05:00:09;;;;;;;17.83;8.73;;;10.30;99.90;;;;;;5100329;28;20385;-58
2023/10/29 05:02:35;;;;;;;22.83;8.07;;;10.20;99.90;;;;;;5100241;28;20024;-58
2023/10/29 05:05:03;;;;;;;23.13;9.00;;;10.20;99.90;;;;;;5118364;28;20034;-58
2023/10/29 05:07:29;;;;;;;20.83;8.10;;;10.20;99.90;;;;;;5118286;28;20019;-58
2023/10/29 05:09:55;;;;;;;27.30;9.23;;;10.30;99.90;;;;;;5118522;28;20031;-58
2023/10/29 05:12:21;;;;;;;18.00;9.57;;;10.30;99.90;;;;;;5118100;28;20477;-58
2023/10/29 05:14:50;;;;;;;21.38;8.15;;;10.20;99.90;;;;;;5118376;28;20115;-58
2023/10/29 05:17:16;;;;;;;24.65;9.93;;;10.10;99.90;;;;;;5118405;28;20107;-58
2023/10/29 05:19:44;;;;;;;28.65;10.50;;;10.00;99.90;;;;;;5118073;28;20077;-58
2023/10/29 05:22:10;;;;;;;50.25;21.70;;;9.90;99.90;;;;;;5118139;28;20020;-58
2023/10/29 05:24:36;;;;;;;40.05;17.90;;;9.90;99.90;;;;;;5118306;28;20023;-58
2023/10/29 05:27:03;;;;;;;33.25;16.08;;;9.80;99.90;;;;;;5114519;28;20024;-58
2023/10/29 05:29:28;;;;;;;28.27;14.73;;;9.70;99.90;;;;;;5117899;28;20039;-58
2023/10/29 05:31:54;;;;;;;22.60;12.25;;;9.70;99.90;;;;;;5118078;28;20408;-58
2023/10/29 05:34:20;;;;;;;25.08;11.82;;;9.70;99.90;;;;;;5117695;28;20028;-58
2023/10/29 05:36:47;;;;;;;23.17;11.07;;;9.70;99.90;;;;;;5117914;28;20033;-58
2023/10/29 05:39:14;;;;;;;23.55;10.68;;;9.80;99.90;;;;;;5117972;28;20035;-58
2023/10/29 05:41:41;;;;;;;33.35;11.15;;;9.70;99.90;;;;;;5117635;28;20019;-58
2023/10/29 05:44:07;;;;;;;28.88;12.15;;;9.70;99.90;;;;;;5117847;28;20031;-58
2023/10/29 05:46:32;;;;;;;25.42;10.15;;;9.80;99.90;;;;;;5117773;28;20431;-58
2023/10/29 05:48:59;;;;;;;23.00;9.63;;;10.10;99.90;;;;;;5117194;28;20072;-58
2023/10/29 05:51:25;;;;;;;24.45;9.70;;;10.60;99.90;;;;;;5117650;28;20035;-58
2023/10/29 05:53:51;;;;;;;27.90;9.73;;;11.20;99.90;;;;;;5117678;28;20127;-58
2023/10/29 05:56:18;;;;;;;25.90;9.18;;;11.80;99.90;;;;;;5117533;28;20063;-58
2023/10/29 05:58:44;;;;;;;26.58;10.30;;;12.40;99.90;;;;;;5117226;28;20043;-58
2023/10/29 06:01:10;;;;;;;28.25;8.80;;;12.70;99.90;;;;;;5117530;28;20228;-58
2023/10/29 06:03:36;;;;;;;19.08;9.27;;;13.10;99.90;;;;;;5117133;28;20101;-59
2023/10/29 06:06:03;;;;;;;21.20;8.60;;;13.60;99.90;;;;;;5117498;28;20365;-58
2023/10/29 06:08:29;;;;;;;20.00;7.60;;;14.60;99.90;;;;;;5117524;28;20080;-58
2023/10/29 06:10:54;;;;;;;22.45;8.80;;;14.60;99.90;;;;;;5117113;28;20031;-58
2023/10/29 06:13:20;;;;;;;22.77;8.93;;;15.20;99.90;;;;;;5117076;28;20035;-58
2023/10/29 06:15:46;;;;;;;22.38;9.27;;;16.30;96.90;;;;;;5117206;28;20020;-59
2023/10/29 06:18:13;;;;;;;25.00;10.20;;;16.60;97.10;;;;;;5116805;28;20131;-59
2023/10/29 06:20:41;;;;;;;29.58;10.15;;;17.30;92.80;;;;;;5117368;28;20027;-58
2023/10/29 06:23:08;;;;;;;28.42;10.25;;;17.20;92.20;;;;;;5117329;28;20043;-59
2023/10/29 06:25:33;;;;;;;19.55;9.02;;;17.10;91.80;;;;;;5116783;28;20035;-59
2023/10/29 06:27:59;;;;;;;19.02;9.45;;;18.00;88.70;;;;;;5116716;28;20176;-59
2023/10/29 06:30:25;;;;;;;18.10;8.82;;;18.30;85.40;;;;;;5116991;28;20058;-59
2023/10/29 06:32:51;;;;;;;22.33;10.52;;;19.00;81.00;;;;;;5116552;28;20476;-59
2023/10/29 06:35:17;;;;;;;24.48;10.55;;;18.70;78.30;;;;;;5116903;28;20027;-59
2023/10/29 06:37:43;;;;;;;19.05;9.57;;;18.90;80.30;;;;;;5116820;28;20030;-59
2023/10/29 06:40:09;;;;;;;27.00;11.23;;;20.10;73.60;;;;;;5116566;28;20434;-59
2023/10/29 06:42:37;;;;;;;25.50;11.57;;;20.30;70.70;;;;;;5116723;28;20410;-59
2023/10/29 06:45:05;;;;;;;25.80;12.10;;;20.00;67.20;;;;;;5116650;28;20020;-59
2023/10/29 06:47:31;;;;;;;21.35;10.15;;;18.60;74.60;;;;;;5116097;28;20035;-59
2023/10/29 06:49:57;;;;;;;21.75;10.68;;;19.40;70.60;;;;;;5116604;28;20100;-59
2023/10/29 06:52:23;;;;;;;19.50;9.70;;;18.00;74.00;;;;;;5116462;28;20019;-59
2023/10/29 06:54:49;;;;;;;23.33;11.18;;;17.60;78.50;;;;;;5116414;28;20032;-59
2023/10/29 06:57:14;;;;;;;26.63;10.88;;;19.00;76.40;;;;;;5116363;28;20114;-59
2023/10/29 06:59:40;;;;;;;20.98;10.27;;;19.70;71.60;;;;;;5116094;28;20433;-59
2023/10/29 07:02:07;;;;;;;22.00;11.93;;;20.30;69.70;;;;;;5115710;28;20046;-59
2023/10/29 07:04:33;;;;;;;21.92;12.15;;;18.80;69.60;;;;;;5116329;28;20397;-59
2023/10/29 07:06:59;;;;;;;24.13;11.90;;;18.50;74.30;;;;;;5116549;28;20024;-58
2023/10/29 07:09:25;;;;;;;27.38;13.73;;;18.80;71.80;;;;;;5116064;28;20361;-59
2023/10/29 07:11:51;;;;;;;29.75;14.85;;;19.70;69.80;;;;;;5116052;28;20027;-59
2023/10/29 07:14:17;;;;;;;34.42;14.95;;;19.20;71.60;;;;;;5116164;28;20023;-58
2023/10/29 07:16:46;;;;;;;25.08;13.93;;;19.40;71.80;;;;;;5115794;28;20427;-59
2023/10/29 07:19:13;;;;;;;25.52;13.60;;;19.90;67.40;;;;;;5115922;28;20477;-59
2023/10/29 07:21:39;;;;;;;24.08;13.85;;;20.00;67.30;;;;;;5116023;28;20469;-59
2023/10/29 07:24:06;;;;;;;24.02;13.55;;;20.10;66.60;;;;;;5115816;28;20024;-59
2023/10/29 07:26:33;;;;;;;31.38;15.00;;;20.70;66.20;;;;;;5115914;28;20107;-59
2023/10/29 07:29:03;;;;;;;33.78;15.63;;;20.60;63.60;;;;;;5115950;28;20031;-59
2023/10/29 07:31:30;;;;;;;25.55;14.50;;;20.90;64.30;;;;;;5115981;28;20055;-59
2023/10/29 07:33:56;;;;;;;24.70;13.95;;;20.20;66.30;;;;;;5115835;28;20027;-59
2023/10/29 07:36:23;;;;;;;30.55;15.65;;;20.50;64.30;;;;;;5115972;28;20031;-59
2023/10/29 07:38:49;;;;;;;26.17;15.27;;;21.00;63.00;;;;;;5115539;28;20492;-59
2023/10/29 07:41:22;;;;;;;28.75;15.38;;;22.00;61.00;;;;;;5097703;28;20019;-59
2023/10/29 07:43:48;;;;;;;38.65;15.63;;;22.30;59.50;;;;;;5116170;28;20020;-59
2023/10/29 07:46:14;;;;;;;25.15;12.73;;;22.50;58.20;;;;;;5115617;28;20377;-59
2023/10/29 07:48:41;;;;;;;21.75;12.20;;;23.10;56.60;;;;;;5115677;28;20125;-59
2023/10/29 07:51:09;;;;;;;20.58;11.20;;;23.20;55.00;;;;;;5115743;28;20028;-59
2023/10/29 07:53:35;;;;;;;27.00;11.98;;;23.70;54.30;;;;;;5115546;28;20028;-59
2023/10/29 07:56:12;;;;;;;18.02;10.25;;;23.30;56.70;;;;;;5115862;28;20111;-59
2023/10/29 07:58:40;;;;;;;16.52;10.70;;;23.80;53.50;;;;;;5115600;28;20023;-59
2023/10/29 08:01:18;;;;;;;25.95;11.73;;;23.80;53.60;;;;;;5115478;28;20055;-59
2023/10/29 08:03:45;;;;;;;21.35;11.52;;;24.00;52.00;;;;;;5115239;28;20047;-59
2023/10/29 08:06:12;;;;;;;23.77;11.68;;;24.20;50.60;;;;;;5115705;28;20031;-59
2023/10/29 08:08:38;;;;;;;24.20;11.40;;;24.30;51.00;;;;;;5115377;28;20031;-59
2023/10/29 08:11:04;;;;;;;21.70;11.63;;;24.50;49.60;;;;;;5115595;28;20472;-59
2023/10/29 08:13:30;;;;;;;19.15;10.30;;;24.30;50.50;;;;;;5119537;28;20122;-59
2023/10/29 08:15:58;;;;;;;17.88;10.52;;;24.80;52.50;;;;;;5119417;28;20062;-59
2023/10/29 08:18:24;;;;;;;22.95;10.45;;;25.60;48.90;;;;;;5119120;28;20035;-59
2023/10/29 08:20:49;;;;;;;19.25;9.93;;;24.90;47.90;;;;;;5119524;28;20449;-59
2023/10/29 08:23:15;;;;;;;18.10;9.85;;;24.80;48.40;;;;;;5119616;28;20026;-59
2023/10/29 08:25:41;;;;;;;25.13;9.82;;;25.20;48.60;;;;;;5119343;28;20099;-59
2023/10/29 08:28:11;;;;;;;23.23;9.70;;;25.70;46.20;;;;;;5119372;28;20077;-59
2023/10/29 08:30:37;;;;;;;18.75;9.68;;;25.40;46.30;;;;;;5118988;28;20077;-59
2023/10/29 08:33:02;;;;;;;17.77;9.45;;;25.50;47.80;;;;;;5119054;28;20110;-59
2023/10/29 08:35:28;;;;;;;16.88;9.20;;;26.00;48.60;;;;;;5119298;28;20043;-59
2023/10/29 08:37:55;;;;;;;17.08;9.80;;;26.80;47.60;;;;;;5118876;28;20376;-59
2023/10/29 08:40:21;;;;;;;19.52;9.85;;;26.80;44.00;;;;;;5119128;28;20051;-59
2023/10/29 08:42:47;;;;;;;18.75;9.93;;;26.90;44.20;;;;;;5119066;28;20023;-59
2023/10/29 08:45:13;;;;;;;18.13;9.77;;;27.30;44.00;;;;;;5119041;28;20119;-59
2023/10/29 08:47:39;;;;;;;18.33;10.23;;;27.40;42.40;;;;;;5118853;28;20028;-59
2023/10/29 08:50:07;;;;;;;18.75;10.48;;;27.50;41.90;;;;;;5118810;28;20032;-59
2023/10/29 08:52:33;;;;;;;18.58;9.90;;;27.50;40.50;;;;;;5118595;28;20028;-59
2023/10/29 08:54:58;;;;;;;17.77;10.23;;;27.50;41.40;;;;;;5118903;28;20065;-59
2023/10/29 08:57:24;;;;;;;17.25;8.68;;;27.40;45.40;;;;;;5118491;28;20035;-60
2023/10/29 08:59:50;;;;;;;16.67;8.90;;;28.00;42.60;;;;;;5118517;28;20035;-59
2023/10/29 09:02:16;;;;;;;18.77;9.80;;;28.50;39.30;;;;;;5118634;28;20020;-59
2023/10/29 09:04:42;;;;;;;23.10;10.48;;;28.70;38.80;;;;;;5118614;28;20020;-59
2023/10/29 09:07:08;;;;;;;19.65;9.85;;;28.20;40.40;;;;;;5118747;28;20027;-59
2023/10/29 09:09:36;;;;;;;21.48;9.55;;;27.60;38.90;;;;;;5118443;28;20031;-59
2023/10/29 09:12:02;;;;;;;17.10;9.43;;;27.90;39.30;;;;;;5118484;28;20016;-59
2023/10/29 09:14:27;;;;;;;25.83;11.63;;;28.40;38.80;;;;;;5118323;28;20468;-59
2023/10/29 09:16:53;;;;;;;24.83;11.88;;;29.20;40.40;;;;;;5118136;28;20066;-59
2023/10/29 09:19:20;;;;;;;19.75;11.90;;;29.20;38.10;;;;;;5118249;28;20032;-59
2023/10/29 09:21:47;;;;;;;22.17;12.70;;;29.10;38.00;;;;;;5118292;28;20027;-59
2023/10/29 09:24:15;;;;;;;19.73;12.02;;;28.70;36.50;;;;;;5117400;28;20111;-59
2023/10/29 09:26:41;;;;;;;23.80;11.80;;;28.90;37.60;;;;;;5118115;28;20053;-59
2023/10/29 09:29:10;;;;;;;25.60;12.43;;;29.80;38.00;;;;;;5118218;28;20031;-59
2023/10/29 09:31:36;;;;;;;20.73;10.88;;;30.00;34.80;;;;;;5117929;28;20059;-59
2023/10/29 09:34:04;;;;;;;21.65;11.43;;;29.90;34.30;;;;;;5117840;28;20465;-59
2023/10/29 09:36:29;;;;;;;19.77;10.23;;;30.40;33.90;;;;;;5117974;28;20076;-59
2023/10/29 09:38:56;;;;;;;15.95;9.15;;;29.70;32.30;;;;;;5117786;28;20024;-59
2023/10/29 09:41:22;;;;;;;14.80;8.38;;;30.10;31.70;;;;;;5118037;28;20024;-60
2023/10/29 09:43:52;;;;;;;19.13;7.47;;;29.50;31.40;;;;;;5117858;28;20037;-59
2023/10/29 09:46:19;;;;;;;12.57;7.95;;;30.00;32.60;;;;;;5117633;28;20058;-60
2023/10/29 09:48:46;;;;;;;11.40;5.60;;;30.40;31.30;;;;;;5117675;28;20108;-59
2023/10/29 09:51:14;;;;;;;8.77;4.53;;;30.70;29.40;;;;;;5117707;28;20304;-59
2023/10/29 09:53:40;;;;;;;7.57;3.90;;;31.50;28.30;;;;;;5117578;28;20059;-59
2023/10/29 09:56:08;;;;;;;9.45;4.90;;;31.30;24.80;;;;;;5117408;28;20046;-59
2023/10/29 09:58:35;;;;;;;8.77;5.00;;;31.20;25.40;;;;;;5117531;28;20024;-59
2023/10/29 10:01:04;;;;;;;7.63;3.70;;;30.60;26.30;;;;;;5117307;28;20027;-59
2023/10/29 10:03:30;;;;;;;6.55;2.65;;;30.90;25.60;;;;;;5117366;28;20031;-59
2023/10/29 10:06:00;;;;;;;7.15;3.08;;;30.90;25.20;;;;;;5117474;28;20491;-59
2023/10/29 10:08:27;;;;;;;6.18;3.15;;;31.30;24.20;;;;;;5117050;28;20035;-60
2023/10/29 10:10:53;;;;;;;6.95;2.70;;;31.60;24.40;;;;;;5117214;28;20484;-59
2023/10/29 10:13:36;;;;;;;5.88;2.90;;;31.40;23.10;;;;;;5117114;28;20464;-60
2023/10/29 10:16:06;;;;;;;14.07;4.53;;;30.90;24.20;;;;;;5117235;28;20032;-59
2023/10/29 10:18:50;;;;;;;5.28;2.50;;;31.80;25.40;;;;;;5117094;28;20042;-59
2023/10/29 10:21:20;;;;;;;5.70;2.22;;;31.80;22.50;;;;;;5116826;28;20354;-60
2023/10/29 10:23:52;;;;;;;5.10;2.67;;;31.10;23.30;;;;;;5098879;28;20024;-59
2023/10/29 10:26:30;;;;;;;6.28;3.17;;;31.20;22.50;;;;;;5116920;28;20299;-60
2023/10/29 10:28:57;;;;;;;6.35;2.85;;;31.30;24.90;;;;;;5116906;28;20032;-60
2023/10/29 10:31:27;;;;;;;6.53;2.35;;;30.20;23.60;;;;;;5117008;28;20098;-60
2023/10/29 10:34:11;;;;;;;5.32;2.90;;;30.80;24.40;;;;;;5116649;28;20032;-60
2023/10/29 10:36:37;;;;;;;10.45;3.40;;;32.10;23.90;;;;;;5115727;28;20031;-60
2023/10/29 10:39:04;;;;;;;7.15;2.90;;;31.20;23.30;;;;;;5116723;28;20034;-59
2023/10/29 10:41:43;;;;;;;6.70;2.80;;;31.50;25.20;;;;;;5116730;28;20031;-59
2023/10/29 10:44:16;;;;;;;4.57;2.38;;;31.60;23.40;;;;;;5116636;28;20140;-60
2023/10/29 10:46:53;;;;;;;5.05;2.28;;;31.00;21.80;;;;;;5116703;28;20031;-60
2023/10/29 10:49:21;;;;;;;7.25;2.33;;;31.40;22.10;;;;;;5116523;28;20036;-60
2023/10/29 10:51:52;;;;;;;9.55;2.78;;;30.90;23.50;;;;;;5116386;28;20057;-60
2023/10/29 10:54:19;;;;;;;9.02;2.75;;;31.60;22.60;;;;;;5116668;28;20028;-60
2023/10/29 10:56:45;;;;;;;8.05;2.42;;;31.10;23.20;;;;;;5116399;28;20054;-59
2023/10/29 10:59:11;;;;;;;8.52;2.25;;;31.20;22.80;;;;;;5116178;28;20512;-60
2023/10/29 11:01:39;;;;;;;6.57;2.30;;;31.50;22.60;;;;;;5116329;28;20020;-60
2023/10/29 11:04:08;;;;;;;7.53;2.63;;;31.70;23.30;;;;;;5116133;28;20488;-60
2023/10/29 11:06:36;;;;;;;8.93;3.38;;;31.20;22.20;;;;;;5116144;28;20022;-59
2023/10/29 11:09:05;;;;;;;7.93;2.70;;;31.00;23.10;;;;;;5116192;28;20058;-60
2023/10/29 11:11:38;;;;;;;4.97;2.10;;;30.80;22.80;;;;;;5116289;28;20063;-60
2023/10/29 11:14:12;;;;;;;5.60;2.35;;;31.40;23.50;;;;;;5115784;28;20041;-60
2023/10/29 11:16:53;;;;;;;8.93;3.38;;;31.70;22.10;;;;;;5116367;28;20106;-60
2023/10/29 11:19:44;;;;;;;8.90;2.42;;;31.90;21.90;;;;;;5116236;28;20100;-60
2023/10/29 11:22:29;;;;;;;5.72;2.15;;;31.60;23.60;;;;;;5115899;28;20023;-60
2023/10/29 11:25:14;;;;;;;3.70;1.80;;;31.50;21.80;;;;;;5116028;28;20026;-60
2023/10/29 11:27:46;;;;;;;6.07;2.83;;;32.00;21.50;;;;;;5116247;28;20043;-60
2023/10/29 11:30:17;;;;;;;5.85;2.60;;;32.10;21.60;;;;;;5115895;28;20031;-60
2023/10/29 11:32:44;;;;;;;14.40;3.90;;;31.60;23.80;;;;;;5115959;28;20023;-60
2023/10/29 11:35:19;;;;;;;4.80;2.20;;;32.00;21.70;;;;;;5115806;28;20043;-59
2023/10/29 11:37:47;;;;;;;6.93;2.90;;;30.80;22.30;;;;;;5115847;28;20553;-60
2023/10/29 11:40:32;;;;;;;6.18;2.30;;;30.30;23.50;;;;;;5115745;28;20020;-60
2023/10/29 11:43:15;;;;;;;5.53;2.00;;;30.30;23.30;;;;;;5115723;28;20035;-59
2023/10/29 11:45:51;;;;;;;6.22;2.45;;;30.80;23.40;;;;;;5115867;28;20385;-59
2023/10/29 11:48:16;;;;;;;7.07;2.30;;;30.40;21.10;;;;;;5119770;28;20036;-60
2023/10/29 11:51:05;;;;;;;5.18;2.28;;;30.40;22.00;;;;;;5119841;28;20032;-59
2023/10/29 11:53:32;;;;;;;6.90;2.58;;;30.50;23.00;;;;;;5119923;28;20585;-60
2023/10/29 11:56:05;;;;;;;7.72;2.10;;;31.10;23.00;;;;;;5120002;28;20031;-60
2023/10/29 11:58:32;;;;;;;6.05;2.03;;;31.40;20.80;;;;;;5119648;28;20046;-60
2023/10/29 12:00:59;;;;;;;7.10;2.83;;;31.20;22.80;;;;;;5119874;28;20380;-60
2023/10/29 12:03:25;;;;;;;5.63;2.60;;;31.00;22.90;;;;;;5119674;28;20023;-60
2023/10/29 12:05:55;;;;;;;5.45;1.92;;;31.20;21.10;;;;;;5119598;28;20350;-59
2023/10/29 12:08:23;;;;;;;12.70;2.08;;;31.20;19.90;;;;;;5119760;28;20043;-60
2023/10/29 12:10:53;;;;;;;10.45;3.55;;;31.00;20.90;;;;;;5119608;28;20026;-59
2023/10/29 12:13:19;;;;;;;6.93;2.35;;;30.60;21.40;;;;;;5119423;28;20396;-60
2023/10/29 12:15:56;;;;;;;7.30;2.40;;;31.20;21.20;;;;;;5119623;28;20023;-60
2023/10/29 12:18:22;;;;;;;5.90;2.10;;;31.00;21.20;;;;;;5119132;28;20036;-60
2023/10/29 12:20:48;;;;;;;9.48;3.03;;;31.20;20.90;;;;;;5119275;28;20058;-60
2023/10/29 12:23:15;;;;;;;5.70;2.42;;;31.10;22.70;;;;;;5119464;28;20054;-60
2023/10/29 12:25:43;;;;;;;6.72;2.92;;;31.50;21.70;;;;;;5119383;28;20034;-60
2023/10/29 12:28:09;;;;;;;7.40;2.72;;;32.00;21.00;;;;;;5119128;28;20031;-60
2023/10/29 12:30:50;;;;;;;6.05;2.75;;;31.60;21.40;;;;;;5119294;28;20027;-60
2023/10/29 12:33:25;;;;;;;5.63;2.33;;;31.90;21.30;;;;;;5119004;28;20400;-60